createdAt,value
2023-04-13T00:00:47.889Z,98588.75
2023-04-13T00:03:19.266Z,98596.22
2023-04-13T00:05:48.518Z,98599.69
2023-04-13T00:08:16.950Z,98599.53
2023-04-13T00:10:45.922Z,98605.03
2023-04-13T00:13:15.332Z,98614.31
2023-04-13T00:15:43.906Z,98614.53
2023-04-13T00:18:12.381Z,98614.25
2023-04-13T00:20:41.631Z,98614.03
2023-04-13T00:23:09.018Z,98622.56
2023-04-13T00:25:36.420Z,98617.19
2023-04-13T00:28:06.172Z,98618.53
2023-04-13T00:30:34.967Z,98620.91
2023-04-13T00:33:04.303Z,98612.06
2023-04-13T00:35:31.932Z,98612.06
2023-04-13T00:38:00.425Z,98605.16
2023-04-13T00:40:28.454Z,98612.94
2023-04-13T00:42:56.083Z,98615.59
2023-04-13T00:45:23.689Z,98608.97
2023-04-13T00:47:54.048Z,98597.47
2023-04-13T00:50:21.773Z,98584.84
2023-04-13T00:52:49.364Z,98601.56
2023-04-13T00:55:20.931Z,98607.34
2023-04-13T00:57:49.978Z,98605.56
2023-04-13T01:00:18.547Z,98614.31
2023-04-13T01:02:46.373Z,98617.19
2023-04-13T01:05:16.868Z,98594.06
2023-04-13T01:07:55.353Z,98594.03
2023-04-13T01:10:29.055Z,98603.69
2023-04-13T01:13:05.588Z,98601.06
2023-04-13T01:15:37.960Z,98612.13
2023-04-13T01:18:08.763Z,98626.50
2023-04-13T01:20:40.281Z,98624.63
2023-04-13T01:23:10.487Z,98629.84
2023-04-13T01:25:41.662Z,98625.31
2023-04-13T01:28:13.507Z,98631.56
2023-04-13T01:30:42.434Z,98633.78
2023-04-13T01:33:11.337Z,98642.13
2023-04-13T01:35:39.977Z,98636.16
2023-04-13T01:38:08.745Z,98641.34
2023-04-13T01:40:41.793Z,98634.72
2023-04-13T01:43:10.471Z,98641.50
2023-04-13T01:45:46.921Z,98627.44
2023-04-13T01:48:19.190Z,98616.09
2023-04-13T01:50:52.574Z,98606.84
2023-04-13T01:53:22.752Z,98595.84
2023-04-13T01:55:50.491Z,98607.06
2023-04-13T01:58:21.678Z,98606.72
2023-04-13T02:00:50.403Z,98602.25
2023-04-13T02:03:17.986Z,98582.78
2023-04-13T02:05:46.057Z,98591.78
2023-04-13T02:08:13.890Z,98587.06
2023-04-13T02:10:42.363Z,98577.13
2023-04-13T02:13:10.418Z,98578.69
2023-04-13T02:15:39.275Z,98570.53
2023-04-13T02:18:08.306Z,98562.22
2023-04-13T02:20:40.389Z,98560.84
2023-04-13T02:23:08.681Z,98542.19
2023-04-13T02:25:36.044Z,98538.31
2023-04-13T02:28:03.423Z,98525.69
2023-04-13T02:30:30.900Z,98516.09
2023-04-13T02:32:59.674Z,98499.53
2023-04-13T02:35:27.300Z,98488.75
2023-04-13T02:37:55.906Z,98487.09
2023-04-13T02:40:24.093Z,98471.53
2023-04-13T02:42:51.489Z,98462.91
2023-04-13T02:45:18.848Z,98448.16
2023-04-13T02:47:46.253Z,98433.44
2023-04-13T02:50:15.294Z,98427.31
2023-04-13T02:52:43.747Z,98421.53
2023-04-13T02:55:11.616Z,98407.25
2023-04-13T02:57:38.970Z,98395.59
2023-04-13T03:00:10.310Z,98387.91
2023-04-13T03:02:38.149Z,98367.84
2023-04-13T03:05:06.484Z,98352.22
2023-04-13T03:07:36.394Z,98343.19
2023-04-13T03:10:05.462Z,98329.13
2023-04-13T03:12:33.258Z,98313.41
2023-04-13T03:15:03.555Z,98289.44
2023-04-13T03:17:31.200Z,98266.63
2023-04-13T03:19:59.666Z,98257.56
2023-04-13T03:22:31.687Z,98242.97
2023-04-13T03:25:00.463Z,98233.19
2023-04-13T03:27:27.835Z,98206.63
2023-04-13T03:29:55.264Z,98193.81
2023-04-13T03:32:22.732Z,98183.03
2023-04-13T03:34:50.255Z,98171.44
2023-04-13T03:37:17.772Z,98155.25
2023-04-13T03:39:45.398Z,98149.13
2023-04-13T03:42:15.177Z,98137.41
2023-04-13T03:44:42.767Z,98131.91
2023-04-13T03:47:10.458Z,98126.88
2023-04-13T03:49:37.885Z,98117.41
2023-04-13T03:52:05.634Z,98104.00
2023-04-13T03:54:33.063Z,98097.19
2023-04-13T03:57:02.029Z,98092.75
2023-04-13T03:59:30.963Z,98085.78
2023-04-13T04:01:58.451Z,98076.38
2023-04-13T04:04:26.197Z,98073.03
2023-04-13T04:06:53.621Z,98058.31
2023-04-13T04:09:21.028Z,98054.22
2023-04-13T04:11:48.393Z,98050.75
2023-04-13T04:14:15.996Z,98059.72
2023-04-13T04:16:44.847Z,98062.91
2023-04-13T04:19:12.429Z,98066.59
2023-04-13T04:21:46.643Z,98075.06
2023-04-13T04:24:20.506Z,98078.25
2023-04-13T04:26:50.119Z,98094.34
2023-04-13T04:29:21.841Z,98106.00
2023-04-13T04:31:53.909Z,98113.03
2023-04-13T04:34:21.558Z,98107.91
2023-04-13T04:36:51.018Z,98112.88
2023-04-13T04:39:22.281Z,98129.72
2023-04-13T04:41:49.899Z,98132.97
2023-04-13T04:44:18.813Z,98146.06
2023-04-13T04:46:48.991Z,98170.19
2023-04-13T04:49:19.281Z,98171.84
2023-04-13T04:51:46.771Z,98181.13
2023-04-13T04:54:14.284Z,98188.84
2023-04-13T04:56:41.652Z,98211.09
2023-04-13T04:59:10.333Z,98222.03
2023-04-13T05:01:38.693Z,98241.06
2023-04-13T05:04:06.563Z,98254.06
2023-04-13T05:06:35.250Z,98262.25
2023-04-13T05:09:04.084Z,98273.94
2023-04-13T05:11:32.213Z,98275.53
2023-04-13T05:14:00.853Z,98282.94
2023-04-13T05:16:30.685Z,98290.59
2023-04-13T05:18:58.413Z,98301.22
2023-04-13T05:21:26.571Z,98305.94
2023-04-13T05:23:56.430Z,98312.13
2023-04-13T05:26:25.205Z,98316.88
2023-04-13T05:28:52.614Z,98330.19
2023-04-13T05:31:20.224Z,98338.91
2023-04-13T05:33:47.997Z,98352.94
2023-04-13T05:36:15.352Z,98361.16
2023-04-13T05:38:43.015Z,98361.47
2023-04-13T05:41:11.761Z,98375.88
2023-04-13T05:43:39.234Z,98382.94
2023-04-13T05:46:07.729Z,98386.91
2023-04-13T05:48:35.324Z,98386.28
2023-04-13T05:51:02.718Z,98380.09
2023-04-13T05:53:31.008Z,98387.25
2023-04-13T05:55:59.308Z,98383.88
2023-04-13T05:58:28.016Z,98383.38
2023-04-13T06:00:58.074Z,98382.91
2023-04-13T06:03:27.199Z,98395.16
2023-04-13T06:05:55.208Z,98386.00
2023-04-13T06:08:22.797Z,98398.56
2023-04-13T06:10:50.171Z,98406.63
2023-04-13T06:13:18.012Z,98427.59
2023-04-13T06:15:46.974Z,98446.28
2023-04-13T06:18:14.651Z,98439.91
2023-04-13T06:20:42.052Z,98453.47
2023-04-13T06:23:09.445Z,98461.97
2023-04-13T06:25:37.348Z,98460.97
2023-04-13T06:28:04.900Z,98466.03
2023-04-13T06:30:33.434Z,98472.47
2023-04-13T06:33:02.653Z,98479.38
2023-04-13T06:35:30.425Z,98490.28
2023-04-13T06:37:59.648Z,98489.53
2023-04-13T06:40:27.753Z,98498.88
2023-04-13T06:42:56.230Z,98504.72
2023-04-13T06:45:23.650Z,98513.00
2023-04-13T06:47:53.507Z,98521.25
2023-04-13T06:50:22.245Z,98529.44
2023-04-13T06:52:50.115Z,98537.16
2023-04-13T06:55:18.308Z,98539.47
2023-04-13T06:57:46.039Z,98543.69
2023-04-13T07:00:29.014Z,98544.00
2023-04-13T07:02:58.179Z,98540.59
2023-04-13T07:05:27.205Z,98556.78
2023-04-13T07:07:54.617Z,98561.28
2023-04-13T07:10:22.892Z,98563.91
2023-04-13T07:12:50.367Z,98564.38
2023-04-13T07:15:17.840Z,98563.88
2023-04-13T07:17:46.518Z,98554.88
2023-04-13T07:20:14.232Z,98564.13
2023-04-13T07:22:45.637Z,98569.28
2023-04-13T07:25:13.470Z,98576.72
2023-04-13T07:27:41.094Z,98584.19
2023-04-13T07:30:09.622Z,98602.69
2023-04-13T07:32:37.117Z,98599.59
2023-04-13T07:35:05.938Z,98598.44
2023-04-13T07:37:33.315Z,98607.25
2023-04-13T07:40:02.724Z,98622.91
2023-04-13T07:42:30.375Z,98623.16
2023-04-13T07:44:58.095Z,98617.88
2023-04-13T07:47:25.795Z,98636.72
2023-04-13T07:49:53.363Z,98608.34
2023-04-13T07:52:21.028Z,98607.97
2023-04-13T07:54:48.441Z,98602.56
2023-04-13T07:57:19.113Z,98593.19
2023-04-13T07:59:46.483Z,98590.31
2023-04-13T08:02:14.644Z,98583.31
2023-04-13T08:04:42.228Z,98574.06
2023-04-13T08:07:09.767Z,98554.38
2023-04-13T08:09:40.084Z,98554.84
2023-04-13T08:12:08.139Z,98539.22
2023-04-13T08:14:37.308Z,98527.25
2023-04-13T08:17:06.012Z,98537.09
2023-04-13T08:19:33.759Z,98534.41
2023-04-13T08:22:01.165Z,98524.63
2023-04-13T08:24:29.185Z,98523.53
2023-04-13T08:26:58.210Z,98498.75
2023-04-13T08:29:26.333Z,98506.22
2023-04-13T08:31:56.740Z,98500.41
2023-04-13T08:34:24.145Z,98506.75
2023-04-13T08:36:51.514Z,98514.44
2023-04-13T08:39:18.916Z,98522.41
2023-04-13T08:41:47.641Z,98536.81
2023-04-13T08:44:16.351Z,98551.47
2023-04-13T08:46:46.207Z,98579.34
2023-04-13T08:49:15.076Z,98613.88
2023-04-13T08:51:45.682Z,98624.63
2023-04-13T08:54:14.949Z,98645.66
2023-04-13T08:56:46.725Z,98660.19
2023-04-13T08:59:16.151Z,98683.22
2023-04-13T09:01:46.066Z,98695.97
2023-04-13T09:04:18.915Z,98718.34
2023-04-13T09:06:47.733Z,98729.66
2023-04-13T09:09:15.763Z,98733.06
2023-04-13T09:11:45.656Z,98740.84
2023-04-13T09:14:14.581Z,98751.16
2023-04-13T09:16:43.616Z,98752.69
2023-04-13T09:19:13.710Z,98762.13
2023-04-13T09:21:44.661Z,98779.50
2023-04-13T09:24:13.197Z,98768.97
2023-04-13T09:26:41.906Z,98788.94
2023-04-13T09:29:13.972Z,98806.13
2023-04-13T09:31:44.902Z,98820.09
2023-04-13T09:34:13.387Z,98851.00
2023-04-13T09:36:52.786Z,98886.13
2023-04-13T09:39:26.031Z,98903.50
2023-04-13T09:41:54.203Z,98874.13
2023-04-13T09:44:24.483Z,98897.41
2023-04-13T09:46:59.327Z,98909.47
2023-04-13T09:49:27.272Z,98902.50
2023-04-13T09:51:57.325Z,98904.53
2023-04-13T09:54:24.752Z,98927.03
2023-04-13T09:56:54.529Z,98956.44
2023-04-13T09:59:23.705Z,98954.25
2023-04-13T10:01:52.109Z,98949.22
2023-04-13T10:04:20.350Z,98953.81
2023-04-13T10:06:48.850Z,98967.66
2023-04-13T10:09:18.578Z,98968.72
2023-04-13T10:11:50.531Z,98978.00
2023-04-13T10:14:22.520Z,98980.28
2023-04-13T10:17:13.042Z,98980.75
2023-04-13T10:19:44.392Z,98997.13
2023-04-13T10:22:12.425Z,99005.44
2023-04-13T10:24:43.155Z,99022.31
2023-04-13T10:27:16.284Z,99008.31
2023-04-13T10:29:43.782Z,99021.28
2023-04-13T10:32:21.904Z,99024.19
2023-04-13T10:34:49.349Z,99024.78
2023-04-13T10:37:19.457Z,99042.84
2023-04-13T10:39:48.852Z,99031.75
2023-04-13T10:42:18.063Z,99028.91
2023-04-13T10:44:47.337Z,99035.16
2023-04-13T10:47:18.943Z,99042.41
2023-04-13T10:49:47.612Z,99035.41
2023-04-13T10:52:15.902Z,99061.63
2023-04-13T10:54:45.089Z,99056.75
2023-04-13T10:57:16.848Z,99057.66
2023-04-13T10:59:58.115Z,99069.16
2023-04-13T11:02:30.549Z,99061.97
2023-04-13T11:04:58.626Z,99066.66
2023-04-13T11:07:26.655Z,99057.03
2023-04-13T11:10:02.802Z,99063.22
2023-04-13T11:12:32.062Z,99065.78
2023-04-13T11:15:00.000Z,99081.38
2023-04-13T11:17:27.845Z,99068.75
2023-04-13T11:19:57.373Z,99093.63
2023-04-13T11:22:27.830Z,99076.00
2023-04-13T11:25:07.510Z,99090.66
2023-04-13T11:27:37.675Z,99090.63
2023-04-13T11:30:09.857Z,99097.03
2023-04-13T11:32:41.367Z,99093.16
2023-04-13T11:35:09.565Z,99093.31
2023-04-13T11:37:37.815Z,99099.75
2023-04-13T11:40:12.996Z,99095.66
2023-04-13T11:42:43.176Z,99096.41
2023-04-13T11:45:12.455Z,99091.00
2023-04-13T11:47:40.179Z,99095.81
2023-04-13T11:50:09.429Z,99098.28
2023-04-13T11:52:38.423Z,99101.19
2023-04-13T11:55:19.137Z,99112.00
2023-04-13T11:57:52.174Z,99117.03
2023-04-13T12:00:24.300Z,99110.47
2023-04-13T12:03:01.840Z,99105.25
2023-04-13T12:05:33.092Z,99105.56
2023-04-13T12:08:04.342Z,99124.34
2023-04-13T12:10:40.422Z,99120.88
2023-04-13T12:16:05.431Z,99127.97
2023-04-13T12:18:43.107Z,99131.00
2023-04-13T12:21:15.536Z,99137.13
2023-04-13T12:23:53.287Z,99127.78
2023-04-13T12:26:59.291Z,99118.63
2023-04-13T12:29:09.944Z,99149.13
2023-04-13T12:31:39.254Z,99135.22
2023-04-13T12:34:08.550Z,99155.97
2023-04-13T12:36:36.961Z,99138.63
2023-04-13T12:39:05.305Z,99146.31
2023-04-13T12:41:32.779Z,99133.16
2023-04-13T12:44:00.350Z,99150.09
2023-04-13T12:46:29.136Z,99145.09
2023-04-13T12:48:56.929Z,99146.41
2023-04-13T12:51:24.402Z,99139.06
2023-04-13T12:53:52.004Z,99147.66
2023-04-13T12:56:19.407Z,99147.00
2023-04-13T12:58:46.869Z,99141.22
2023-04-13T13:01:15.524Z,99142.47
2023-04-13T13:03:45.905Z,99147.88
2023-04-13T13:06:13.417Z,99149.38
2023-04-13T13:08:40.838Z,99158.75
2023-04-13T13:11:09.041Z,99156.94
2023-04-13T13:13:36.431Z,99162.28
2023-04-13T13:16:04.097Z,99169.91
2023-04-13T13:18:46.448Z,99173.53
2023-04-13T13:21:18.281Z,99175.16
2023-04-13T13:23:46.423Z,99175.59
2023-04-13T13:26:23.719Z,99180.66
2023-04-13T13:28:52.579Z,99183.75
2023-04-13T13:31:20.128Z,99168.66
2023-04-13T13:33:48.015Z,99185.78
2023-04-13T13:36:15.446Z,99197.53
2023-04-13T13:38:44.451Z,99199.28
2023-04-13T13:41:13.653Z,99189.56
2023-04-13T13:43:41.117Z,99182.56
2023-04-13T13:46:08.592Z,99188.28
2023-04-13T13:48:36.017Z,99195.00
2023-04-13T13:51:04.901Z,99194.59
2023-04-13T13:53:34.388Z,99194.06
2023-04-13T13:56:04.462Z,99197.63
2023-04-13T13:58:32.172Z,99188.97
2023-04-13T14:01:00.130Z,99181.50
2023-04-13T14:03:28.050Z,99193.53
2023-04-13T14:05:55.665Z,99211.06
2023-04-13T14:08:23.095Z,99205.28
2023-04-13T14:10:50.583Z,99207.22
2023-04-13T14:13:19.298Z,99202.69
2023-04-13T14:15:46.784Z,99207.69
2023-04-13T14:18:14.289Z,99208.63
2023-04-13T14:20:43.547Z,99213.22
2023-04-13T14:23:11.943Z,99212.19
2023-04-13T14:25:41.012Z,99214.34
2023-04-13T14:28:09.419Z,99216.13
2023-04-13T14:30:38.436Z,99239.56
2023-04-13T14:33:07.260Z,99236.38
2023-04-13T14:35:35.065Z,99216.53
2023-04-13T14:38:02.671Z,99213.91
2023-04-13T14:40:30.158Z,99222.00
2023-04-13T14:42:57.613Z,99240.06
2023-04-13T14:45:25.017Z,99229.25
2023-04-13T14:47:54.586Z,99216.81
2023-04-13T14:50:22.189Z,99218.72
2023-04-13T14:52:50.195Z,99219.81
2023-04-13T14:55:18.328Z,99230.09
2023-04-13T14:57:45.807Z,99234.47
2023-04-13T15:00:21.366Z,99227.38
2023-04-13T15:02:49.879Z,99229.41
2023-04-13T15:05:19.716Z,99246.28
2023-04-13T15:07:48.449Z,99245.91
2023-04-13T15:10:16.331Z,99254.28
2023-04-13T15:12:43.861Z,99237.25
2023-04-13T15:15:12.339Z,99245.81
2023-04-13T15:17:39.808Z,99273.41
2023-04-13T15:20:08.150Z,99272.72
2023-04-13T15:22:36.920Z,99280.50
2023-04-13T15:25:04.790Z,99286.56
2023-04-13T15:27:32.227Z,99295.13
2023-04-13T15:30:03.011Z,99300.47
2023-04-13T15:32:34.365Z,99308.53
2023-04-13T15:35:01.841Z,99307.72
2023-04-13T15:37:29.219Z,99310.94
2023-04-13T15:40:03.440Z,99321.63
2023-04-13T15:42:30.950Z,99318.41
2023-04-13T15:44:58.332Z,99318.44
2023-04-13T15:47:25.724Z,99319.22
2023-04-13T15:49:53.321Z,99317.84
2023-04-13T15:52:20.922Z,99316.81
2023-04-13T15:54:48.297Z,99317.34
2023-04-13T15:57:17.252Z,99324.59
2023-04-13T15:59:45.120Z,99329.38
2023-04-13T16:02:12.608Z,99326.38
2023-04-13T16:04:40.499Z,99339.00
2023-04-13T16:07:13.850Z,99342.19
2023-04-13T16:09:43.659Z,99344.59
2023-04-13T16:12:12.908Z,99349.94
2023-04-13T16:14:44.657Z,99353.66
2023-04-13T16:17:13.047Z,99348.06
2023-04-13T16:19:40.515Z,99353.63
2023-04-13T16:22:10.364Z,99344.56
2023-04-13T16:24:38.692Z,99349.91
2023-04-13T16:27:07.143Z,99356.03
2023-04-13T16:29:34.520Z,99357.06
2023-04-13T16:32:03.292Z,99365.91
2023-04-13T16:34:30.679Z,99368.03
2023-04-13T16:36:58.277Z,99360.50
2023-04-13T16:39:25.825Z,99364.72
2023-04-13T16:41:53.488Z,99365.25
2023-04-13T16:44:21.021Z,99370.84
2023-04-13T16:46:48.482Z,99379.38
2023-04-13T16:49:17.297Z,99380.44
2023-04-13T16:51:44.650Z,99387.63
2023-04-13T16:54:13.776Z,99386.13
2023-04-13T16:56:41.308Z,99396.00
2023-04-13T16:59:08.708Z,99388.47
2023-04-13T17:01:39.272Z,99389.53
2023-04-13T17:04:07.511Z,99395.88
2023-04-13T17:06:39.452Z,99390.84
2023-04-13T17:09:06.962Z,99388.28
2023-04-13T17:11:34.874Z,99396.28
2023-04-13T17:14:02.342Z,99387.00
2023-04-13T17:16:30.248Z,99389.00
2023-04-13T17:18:57.928Z,99397.19
2023-04-13T17:21:25.570Z,99406.66
2023-04-13T17:23:54.528Z,99411.41
2023-04-13T17:26:21.897Z,99412.31
2023-04-13T17:28:49.267Z,99418.78
2023-04-13T17:31:16.679Z,99421.56
2023-04-13T17:33:44.896Z,99422.69
2023-04-13T17:36:14.816Z,99424.84
2023-04-13T17:38:42.241Z,99436.06
2023-04-13T17:41:12.423Z,99435.13
2023-04-13T17:43:40.842Z,99445.22
2023-04-13T17:46:08.694Z,99443.47
2023-04-13T17:48:36.317Z,99444.28
2023-04-13T17:51:03.851Z,99434.88
2023-04-13T17:53:31.201Z,99442.50
2023-04-13T17:55:58.700Z,99445.66
2023-04-13T17:58:27.503Z,99435.59
2023-04-13T18:00:55.195Z,99426.75
2023-04-13T18:03:22.919Z,99421.06
2023-04-13T18:05:50.381Z,99415.28
2023-04-13T18:08:17.758Z,99396.13
2023-04-13T18:10:45.130Z,99382.16
2023-04-13T18:13:12.533Z,99380.16
2023-04-13T18:15:41.435Z,99369.91
2023-04-13T18:18:08.949Z,99358.28
2023-04-13T18:20:36.388Z,99355.59
2023-04-13T18:23:03.781Z,99342.41
2023-04-13T18:25:31.567Z,99338.00
2023-04-13T18:27:59.197Z,99327.34
2023-04-13T18:30:27.263Z,99316.75
2023-04-13T18:32:55.983Z,99315.25
2023-04-13T18:35:23.502Z,99303.91
2023-04-13T18:37:51.239Z,99286.19
2023-04-13T18:40:18.649Z,99259.78
2023-04-13T18:42:49.864Z,99244.03
2023-04-13T18:45:17.593Z,99230.13
2023-04-13T18:47:47.803Z,99218.09
2023-04-13T18:50:16.864Z,99199.09
2023-04-13T18:52:44.411Z,99193.69
2023-04-13T18:55:11.894Z,99186.34
2023-04-13T18:57:40.808Z,99177.38
2023-04-13T19:00:10.283Z,99163.59
2023-04-13T19:02:38.026Z,99162.69
2023-04-13T19:05:06.343Z,99168.41
2023-04-13T19:07:37.773Z,99176.91
2023-04-13T19:10:06.623Z,99174.53
2023-04-13T19:12:34.018Z,99170.81
2023-04-13T19:15:01.749Z,99173.34
2023-04-13T19:17:29.393Z,99168.75
2023-04-13T19:19:57.819Z,99170.47
2023-04-13T19:22:26.555Z,99152.78
2023-04-13T19:24:55.250Z,99150.25
2023-04-13T19:27:23.467Z,99159.31
2023-04-13T19:29:50.898Z,99160.19
2023-04-13T19:32:18.513Z,99167.34
2023-04-13T19:34:45.903Z,99163.53
2023-04-13T19:37:13.256Z,99160.56
2023-04-13T19:39:40.640Z,99147.38
2023-04-13T19:42:09.513Z,99140.13
2023-04-13T19:44:36.896Z,99126.38
2023-04-13T19:47:04.280Z,99113.75
2023-04-13T19:49:32.756Z,99105.19
2023-04-13T19:52:00.227Z,99088.09
2023-04-13T19:54:27.661Z,99076.84
2023-04-13T19:56:55.063Z,99082.13
2023-04-13T19:59:23.750Z,99079.25
2023-04-13T20:01:51.285Z,99074.34
2023-04-13T20:04:19.723Z,99070.47
2023-04-13T20:06:47.471Z,99069.53
2023-04-13T20:09:15.268Z,99069.03
2023-04-13T20:11:42.663Z,99065.22
2023-04-13T20:14:11.366Z,99068.84
2023-04-13T20:16:40.305Z,99064.56
2023-04-13T20:19:09.157Z,99050.28
2023-04-13T20:21:37.004Z,99049.13
2023-04-13T20:24:05.121Z,99039.25
2023-04-13T20:26:32.534Z,99029.28
2023-04-13T20:29:01.062Z,99029.78
2023-04-13T20:31:29.733Z,99011.06
2023-04-13T20:33:59.054Z,99016.69
2023-04-13T20:36:26.975Z,99001.47
2023-04-13T20:38:54.766Z,99000.16
2023-04-13T20:41:24.400Z,98981.06
2023-04-13T20:43:52.011Z,98979.00
2023-04-13T20:46:21.547Z,98974.91
2023-04-13T20:48:51.521Z,98976.44
2023-04-13T20:51:23.823Z,98967.78
2023-04-13T20:53:51.186Z,98971.09
2023-04-13T20:56:19.166Z,98973.75
2023-04-13T20:58:46.652Z,98976.34
2023-04-13T21:01:15.225Z,98972.53
2023-04-13T21:03:43.152Z,98981.91
2023-04-13T21:06:10.833Z,98979.78
2023-04-13T21:08:39.536Z,98981.59
2023-04-13T21:11:06.965Z,98976.72
2023-04-13T21:13:34.354Z,98977.50
2023-04-13T21:16:01.739Z,98974.47
2023-04-13T21:18:29.376Z,98978.28
2023-04-13T21:20:56.795Z,98968.31
2023-04-13T21:23:24.220Z,98967.03
2023-04-13T21:25:52.925Z,98966.34
2023-04-13T21:28:20.266Z,98959.66
2023-04-13T21:30:47.643Z,98957.69
2023-04-13T21:33:15.211Z,98954.88
2023-04-13T21:35:42.610Z,98962.88
2023-04-13T21:38:10.031Z,98963.31
2023-04-13T21:40:37.564Z,98965.91
2023-04-13T21:43:06.284Z,98967.44
2023-04-13T21:45:33.756Z,98970.38
2023-04-13T21:48:01.151Z,98972.09
2023-04-13T21:50:28.523Z,98975.78
2023-04-13T21:52:55.977Z,98980.06
2023-04-13T21:55:23.370Z,98983.34
2023-04-13T21:57:51.058Z,98988.03
2023-04-13T22:00:20.365Z,98988.97
2023-04-13T22:02:49.216Z,98996.16
2023-04-13T22:05:17.078Z,99003.19
2023-04-13T22:07:44.528Z,99010.38
2023-04-13T22:10:12.488Z,99018.88
2023-04-13T22:12:39.911Z,99015.66
2023-04-13T22:15:08.470Z,99026.34
2023-04-13T22:17:37.244Z,99024.13
2023-04-13T22:20:05.229Z,99033.84
2023-04-13T22:22:32.611Z,99039.47
2023-04-13T22:24:59.972Z,99048.88
2023-04-13T22:27:27.330Z,99055.06
2023-04-13T22:29:55.080Z,99061.75
2023-04-13T22:32:22.492Z,99063.25
2023-04-13T22:34:51.219Z,99067.56
2023-04-13T22:37:18.589Z,99073.47
2023-04-13T22:39:45.958Z,99075.53
2023-04-13T22:42:13.346Z,99085.28
2023-04-13T22:44:40.754Z,99091.13
2023-04-13T22:47:08.129Z,99091.78
2023-04-13T22:49:35.550Z,99097.84
2023-04-13T22:52:04.490Z,99110.16
2023-04-13T22:54:32.532Z,99110.56
2023-04-13T22:57:04.613Z,99107.75
2023-04-13T22:59:32.606Z,99105.53
2023-04-13T23:02:01.071Z,99101.91
2023-04-13T23:04:28.733Z,99109.38
2023-04-13T23:06:57.267Z,99113.41
2023-04-13T23:09:26.075Z,99125.53
2023-04-13T23:11:53.426Z,99127.31
2023-04-13T23:14:22.247Z,99131.16
2023-04-13T23:16:49.662Z,99128.75
2023-04-13T23:19:17.757Z,99144.72
2023-04-13T23:21:45.221Z,99138.25
2023-04-13T23:24:12.657Z,99139.47
2023-04-13T23:26:41.398Z,99147.31
2023-04-13T23:29:08.894Z,99145.13
2023-04-13T23:31:36.550Z,99156.19
2023-04-13T23:34:03.933Z,99155.63
2023-04-13T23:36:33.080Z,99157.44
2023-04-13T23:39:00.766Z,99163.72
2023-04-13T23:41:28.278Z,99164.28
2023-04-13T23:43:57.310Z,99169.53
2023-04-13T23:46:24.865Z,99174.97
2023-04-13T23:48:52.491Z,99172.56
2023-04-13T23:51:19.886Z,99183.88
2023-04-13T23:53:47.307Z,99188.88
2023-04-13T23:56:14.688Z,99190.25
2023-04-13T23:58:42.076Z,99193.47
